sensor_id;sensor_type;location;lat;lon;timestamp;P1;P2;P0
77481;PMS5003;66582;43.004;-75.010;2023-06-26T00:01:08;6;6;
77481;PMS5003;66582;43.004;-75.010;2023-06-26T00:03:33;7;7;
77481;PMS5003;66582;43.004;-75.010;2023-06-26T00:05:58;6;6;
77481;PMS5003;66582;43.004;-75.010;2023-06-26T00:08:24;5;5;
77481;PMS5003;66582;43.004;-75.010;2023-06-26T00:10:49;7;7;
77481;PMS5003;66582;43.004;-75.010;2023-06-26T00:13:14;8;8;
77481;PMS5003;66582;43.004;-75.010;2023-06-26T00:15:39;8;7;
77481;PMS5003;66582;43.004;-75.010;2023-06-26T00:18:04;6;6;
77481;PMS5003;66582;43.004;-75.010;2023-06-26T00:20:29;9;8;
77481;PMS5003;66582;43.004;-75.010;2023-06-26T00:22:54;9;8;
77481;PMS5003;66582;43.004;-75.010;2023-06-26T00:25:20;8;7;
77481;PMS5003;66582;43.004;-75.010;2023-06-26T00:27:45;8;8;
77481;PMS5003;66582;43.004;-75.010;2023-06-26T00:30:10;8;8;
77481;PMS5003;66582;43.004;-75.010;2023-06-26T00:32:35;10;10;
77481;PMS5003;66582;43.004;-75.010;2023-06-26T00:35:00;7;7;
77481;PMS5003;66582;43.004;-75.010;2023-06-26T00:37:26;7;7;
77481;PMS5003;66582;43.004;-75.010;2023-06-26T00:39:51;5;5;
77481;PMS5003;66582;43.004;-75.010;2023-06-26T00:42:16;6;6;
77481;PMS5003;66582;43.004;-75.010;2023-06-26T00:44:41;6;6;
77481;PMS5003;66582;43.004;-75.010;2023-06-26T00:47:06;6;5;
77481;PMS5003;66582;43.004;-75.010;2023-06-26T00:49:32;6;5;
77481;PMS5003;66582;43.004;-75.010;2023-06-26T00:51:57;5;5;
77481;PMS5003;66582;43.004;-75.010;2023-06-26T00:54:23;6;6;
77481;PMS5003;66582;43.004;-75.010;2023-06-26T00:56:48;6;5;
77481;PMS5003;66582;43.004;-75.010;2023-06-26T00:59:13;7;7;
77481;PMS5003;66582;43.004;-75.010;2023-06-26T01:01:38;7;7;
77481;PMS5003;66582;43.004;-75.010;2023-06-26T01:04:03;6;6;
77481;PMS5003;66582;43.004;-75.010;2023-06-26T01:06:28;7;6;
77481;PMS5003;66582;43.004;-75.010;2023-06-26T01:08:54;6;5;
77481;PMS5003;66582;43.004;-75.010;2023-06-26T01:11:19;13;13;
77481;PMS5003;66582;43.004;-75.010;2023-06-26T01:13:44;16;16;
77481;PMS5003;66582;43.004;-75.010;2023-06-26T01:16:09;15;14;
77481;PMS5003;66582;43.004;-75.010;2023-06-26T01:18:35;12;12;
77481;PMS5003;66582;43.004;-75.010;2023-06-26T01:21:00;6;6;
77481;PMS5003;66582;43.004;-75.010;2023-06-26T01:23:28;9;9;
77481;PMS5003;66582;43.004;-75.010;2023-06-26T01:25:54;7;7;
77481;PMS5003;66582;43.004;-75.010;2023-06-26T01:28:15;7;7;
77481;PMS5003;66582;43.004;-75.010;2023-06-26T01:30:41;6;6;
77481;PMS5003;66582;43.004;-75.010;2023-06-26T01:33:06;6;5;
77481;PMS5003;66582;43.004;-75.010;2023-06-26T01:35:31;7;7;
77481;PMS5003;66582;43.004;-75.010;2023-06-26T01:40:22;7;7;
77481;PMS5003;66582;43.004;-75.010;2023-06-26T01:42:47;5;5;
77481;PMS5003;66582;43.004;-75.010;2023-06-26T01:45:13;6;6;
77481;PMS5003;66582;43.004;-75.010;2023-06-26T01:47:38;9;8;
77481;PMS5003;66582;43.004;-75.010;2023-06-26T01:50:05;12;10;
77481;PMS5003;66582;43.004;-75.010;2023-06-26T01:52:29;9;8;
77481;PMS5003;66582;43.004;-75.010;2023-06-26T01:55:01;10;10;
77481;PMS5003;66582;43.004;-75.010;2023-06-26T01:57:18;10;9;
77481;PMS5003;66582;43.004;-75.010;2023-06-26T01:59:43;7;7;
77481;PMS5003;66582;43.004;-75.010;2023-06-26T02:02:09;8;8;
77481;PMS5003;66582;43.004;-75.010;2023-06-26T02:04:34;8;8;
77481;PMS5003;66582;43.004;-75.010;2023-06-26T02:06:59;6;6;
77481;PMS5003;66582;43.004;-75.010;2023-06-26T02:09:24;12;12;
77481;PMS5003;66582;43.004;-75.010;2023-06-26T02:11:50;12;12;
77481;PMS5003;66582;43.004;-75.010;2023-06-26T02:14:15;6;6;
77481;PMS5003;66582;43.004;-75.010;2023-06-26T02:16:40;7;7;
77481;PMS5003;66582;43.004;-75.010;2023-06-26T02:19:05;8;7;
77481;PMS5003;66582;43.004;-75.010;2023-06-26T02:21:30;8;7;
77481;PMS5003;66582;43.004;-75.010;2023-06-26T02:23:56;6;6;
77481;PMS5003;66582;43.004;-75.010;2023-06-26T02:26:21;5;5;
77481;PMS5003;66582;43.004;-75.010;2023-06-26T02:28:46;8;7;
77481;PMS5003;66582;43.004;-75.010;2023-06-26T02:31:11;9;8;
77481;PMS5003;66582;43.004;-75.010;2023-06-26T02:33:36;7;7;
77481;PMS5003;66582;43.004;-75.010;2023-06-26T02:36:02;6;6;
77481;PMS5003;66582;43.004;-75.010;2023-06-26T02:38:27;8;8;
77481;PMS5003;66582;43.004;-75.010;2023-06-26T02:40:52;9;8;
77481;PMS5003;66582;43.004;-75.010;2023-06-26T02:43:17;8;7;
77481;PMS5003;66582;43.004;-75.010;2023-06-26T02:45:42;7;7;
77481;PMS5003;66582;43.004;-75.010;2023-06-26T02:48:08;5;5;
77481;PMS5003;66582;43.004;-75.010;2023-06-26T02:50:33;8;8;
77481;PMS5003;66582;43.004;-75.010;2023-06-26T02:52:58;7;7;
77481;PMS5003;66582;43.004;-75.010;2023-06-26T02:55:23;6;6;
77481;PMS5003;66582;43.004;-75.010;2023-06-26T02:57:48;7;7;
77481;PMS5003;66582;43.004;-75.010;2023-06-26T03:00:14;7;7;
77481;PMS5003;66582;43.004;-75.010;2023-06-26T03:02:39;10;10;
77481;PMS5003;66582;43.004;-75.010;2023-06-26T03:05:04;12;12;
77481;PMS5003;66582;43.004;-75.010;2023-06-26T03:07:29;9;9;
77481;PMS5003;66582;43.004;-75.010;2023-06-26T03:09:54;13;13;
77481;PMS5003;66582;43.004;-75.010;2023-06-26T03:12:19;9;7;
77481;PMS5003;66582;43.004;-75.010;2023-06-26T03:14:44;9;8;
77481;PMS5003;66582;43.004;-75.010;2023-06-26T03:17:10;8;7;
77481;PMS5003;66582;43.004;-75.010;2023-06-26T03:19:35;9;9;
77481;PMS5003;66582;43.004;-75.010;2023-06-26T03:22:00;9;8;
77481;PMS5003;66582;43.004;-75.010;2023-06-26T03:24:25;8;8;
77481;PMS5003;66582;43.004;-75.010;2023-06-26T03:26:50;10;9;
77481;PMS5003;66582;43.004;-75.010;2023-06-26T03:29:15;8;8;
77481;PMS5003;66582;43.004;-75.010;2023-06-26T03:31:41;11;11;
77481;PMS5003;66582;43.004;-75.010;2023-06-26T03:34:06;9;8;
77481;PMS5003;66582;43.004;-75.010;2023-06-26T03:36:31;9;9;
77481;PMS5003;66582;43.004;-75.010;2023-06-26T03:38:56;6;6;
77481;PMS5003;66582;43.004;-75.010;2023-06-26T03:41:22;8;8;
77481;PMS5003;66582;43.004;-75.010;2023-06-26T03:43:47;5;5;
77481;PMS5003;66582;43.004;-75.010;2023-06-26T03:46:12;9;9;
77481;PMS5003;66582;43.004;-75.010;2023-06-26T03:48:37;7;7;
77481;PMS5003;66582;43.004;-75.010;2023-06-26T03:51:02;6;6;
77481;PMS5003;66582;43.004;-75.010;2023-06-26T03:53:27;8;7;
77481;PMS5003;66582;43.004;-75.010;2023-06-26T03:55:52;7;7;
77481;PMS5003;66582;43.004;-75.010;2023-06-26T03:58:18;7;7;
77481;PMS5003;66582;43.004;-75.010;2023-06-26T04:00:43;9;8;
77481;PMS5003;66582;43.004;-75.010;2023-06-26T04:03:08;8;7;
77481;PMS5003;66582;43.004;-75.010;2023-06-26T04:05:33;8;8;
77481;PMS5003;66582;43.004;-75.010;2023-06-26T04:07:58;8;8;
77481;PMS5003;66582;43.004;-75.010;2023-06-26T04:10:23;9;8;
77481;PMS5003;66582;43.004;-75.010;2023-06-26T04:12:49;8;7;
77481;PMS5003;66582;43.004;-75.010;2023-06-26T04:15:14;8;7;
77481;PMS5003;66582;43.004;-75.010;2023-06-26T04:17:39;7;7;
77481;PMS5003;66582;43.004;-75.010;2023-06-26T04:20:05;7;6;
77481;PMS5003;66582;43.004;-75.010;2023-06-26T04:22:29;9;9;
77481;PMS5003;66582;43.004;-75.010;2023-06-26T04:24:55;7;7;
77481;PMS5003;66582;43.004;-75.010;2023-06-26T04:27:20;7;7;
77481;PMS5003;66582;43.004;-75.010;2023-06-26T04:29:45;6;6;
77481;PMS5003;66582;43.004;-75.010;2023-06-26T04:32:11;9;8;
77481;PMS5003;66582;43.004;-75.010;2023-06-26T04:34:36;10;10;
77481;PMS5003;66582;43.004;-75.010;2023-06-26T04:37:02;10;9;
77481;PMS5003;66582;43.004;-75.010;2023-06-26T04:39:27;8;8;
77481;PMS5003;66582;43.004;-75.010;2023-06-26T04:41:52;7;7;
77481;PMS5003;66582;43.004;-75.010;2023-06-26T04:44:17;9;8;
77481;PMS5003;66582;43.004;-75.010;2023-06-26T04:46:42;10;9;
77481;PMS5003;66582;43.004;-75.010;2023-06-26T04:49:08;8;8;
77481;PMS5003;66582;43.004;-75.010;2023-06-26T04:51:32;7;7;
77481;PMS5003;66582;43.004;-75.010;2023-06-26T04:53:58;10;9;
77481;PMS5003;66582;43.004;-75.010;2023-06-26T04:56:24;7;7;
77481;PMS5003;66582;43.004;-75.010;2023-06-26T04:58:48;9;9;
77481;PMS5003;66582;43.004;-75.010;2023-06-26T05:01:13;7;7;
77481;PMS5003;66582;43.004;-75.010;2023-06-26T05:03:39;7;7;
77481;PMS5003;66582;43.004;-75.010;2023-06-26T05:06:03;9;9;
77481;PMS5003;66582;43.004;-75.010;2023-06-26T05:08:29;7;7;
77481;PMS5003;66582;43.004;-75.010;2023-06-26T05:10:54;8;7;
77481;PMS5003;66582;43.004;-75.010;2023-06-26T05:13:19;7;6;
77481;PMS5003;66582;43.004;-75.010;2023-06-26T05:15:45;8;7;
77481;PMS5003;66582;43.004;-75.010;2023-06-26T05:18:09;7;7;
77481;PMS5003;66582;43.004;-75.010;2023-06-26T05:20:35;5;5;
77481;PMS5003;66582;43.004;-75.010;2023-06-26T05:23:00;8;8;
77481;PMS5003;66582;43.004;-75.010;2023-06-26T05:25:26;8;7;
77481;PMS5003;66582;43.004;-75.010;2023-06-26T05:27:51;6;5;
77481;PMS5003;66582;43.004;-75.010;2023-06-26T05:30:16;7;7;
77481;PMS5003;66582;43.004;-75.010;2023-06-26T05:32:40;7;7;
77481;PMS5003;66582;43.004;-75.010;2023-06-26T05:35:06;10;10;
77481;PMS5003;66582;43.004;-75.010;2023-06-26T05:37:31;7;7;
77481;PMS5003;66582;43.004;-75.010;2023-06-26T05:39:56;8;8;
77481;PMS5003;66582;43.004;-75.010;2023-06-26T05:42:21;7;7;
77481;PMS5003;66582;43.004;-75.010;2023-06-26T05:44:46;8;8;
77481;PMS5003;66582;43.004;-75.010;2023-06-26T05:47:11;7;7;
77481;PMS5003;66582;43.004;-75.010;2023-06-26T05:49:36;6;6;
77481;PMS5003;66582;43.004;-75.010;2023-06-26T05:52:02;8;8;
77481;PMS5003;66582;43.004;-75.010;2023-06-26T05:54:28;8;8;
77481;PMS5003;66582;43.004;-75.010;2023-06-26T05:56:52;6;6;
77481;PMS5003;66582;43.004;-75.010;2023-06-26T05:59:17;8;8;
77481;PMS5003;66582;43.004;-75.010;2023-06-26T06:01:42;8;8;
77481;PMS5003;66582;43.004;-75.010;2023-06-26T06:04:07;7;7;
77481;PMS5003;66582;43.004;-75.010;2023-06-26T06:06:33;7;7;
77481;PMS5003;66582;43.004;-75.010;2023-06-26T06:08:58;7;7;
77481;PMS5003;66582;43.004;-75.010;2023-06-26T06:11:23;9;8;
77481;PMS5003;66582;43.004;-75.010;2023-06-26T06:13:49;8;8;
77481;PMS5003;66582;43.004;-75.010;2023-06-26T06:16:14;8;7;
77481;PMS5003;66582;43.004;-75.010;2023-06-26T06:18:39;11;11;
77481;PMS5003;66582;43.004;-75.010;2023-06-26T06:21:04;10;10;
77481;PMS5003;66582;43.004;-75.010;2023-06-26T06:23:30;8;8;
77481;PMS5003;66582;43.004;-75.010;2023-06-26T06:25:55;7;7;
77481;PMS5003;66582;43.004;-75.010;2023-06-26T06:28:21;8;8;
77481;PMS5003;66582;43.004;-75.010;2023-06-26T06:30:46;8;8;
77481;PMS5003;66582;43.004;-75.010;2023-06-26T06:33:12;8;8;
77481;PMS5003;66582;43.004;-75.010;2023-06-26T06:35:37;8;8;
77481;PMS5003;66582;43.004;-75.010;2023-06-26T06:38:02;9;9;
77481;PMS5003;66582;43.004;-75.010;2023-06-26T06:40:28;9;7;
77481;PMS5003;66582;43.004;-75.010;2023-06-26T06:42:53;7;7;
77481;PMS5003;66582;43.004;-75.010;2023-06-26T06:45:17;6;6;
77481;PMS5003;66582;43.004;-75.010;2023-06-26T06:47:43;8;8;
77481;PMS5003;66582;43.004;-75.010;2023-06-26T06:50:08;8;8;
77481;PMS5003;66582;43.004;-75.010;2023-06-26T06:52:33;7;6;
77481;PMS5003;66582;43.004;-75.010;2023-06-26T06:54:58;6;6;
77481;PMS5003;66582;43.004;-75.010;2023-06-26T06:57:23;9;9;
77481;PMS5003;66582;43.004;-75.010;2023-06-26T06:59:48;8;8;
77481;PMS5003;66582;43.004;-75.010;2023-06-26T07:02:14;12;8;
77481;PMS5003;66582;43.004;-75.010;2023-06-26T07:04:39;7;7;
77481;PMS5003;66582;43.004;-75.010;2023-06-26T07:07:04;9;9;
77481;PMS5003;66582;43.004;-75.010;2023-06-26T07:09:29;8;8;
77481;PMS5003;66582;43.004;-75.010;2023-06-26T07:11:55;8;8;
77481;PMS5003;66582;43.004;-75.010;2023-06-26T07:14:20;9;8;
77481;PMS5003;66582;43.004;-75.010;2023-06-26T07:16:45;9;8;
77481;PMS5003;66582;43.004;-75.010;2023-06-26T07:19:10;7;7;
77481;PMS5003;66582;43.004;-75.010;2023-06-26T07:21:36;9;9;
77481;PMS5003;66582;43.004;-75.010;2023-06-26T07:24:01;7;7;
77481;PMS5003;66582;43.004;-75.010;2023-06-26T07:26:26;9;9;
77481;PMS5003;66582;43.004;-75.010;2023-06-26T07:28:52;7;7;
77481;PMS5003;66582;43.004;-75.010;2023-06-26T07:31:17;6;6;
77481;PMS5003;66582;43.004;-75.010;2023-06-26T07:33:42;6;6;
77481;PMS5003;66582;43.004;-75.010;2023-06-26T07:36:07;8;7;
77481;PMS5003;66582;43.004;-75.010;2023-06-26T07:38:32;12;9;
77481;PMS5003;66582;43.004;-75.010;2023-06-26T07:40:58;7;7;
77481;PMS5003;66582;43.004;-75.010;2023-06-26T07:43:23;8;7;
77481;PMS5003;66582;43.004;-75.010;2023-06-26T07:45:48;9;8;
77481;PMS5003;66582;43.004;-75.010;2023-06-26T07:48:13;7;6;
77481;PMS5003;66582;43.004;-75.010;2023-06-26T07:50:38;7;7;
77481;PMS5003;66582;43.004;-75.010;2023-06-26T07:53:03;8;8;
77481;PMS5003;66582;43.004;-75.010;2023-06-26T07:55:29;9;9;
77481;PMS5003;66582;43.004;-75.010;2023-06-26T07:57:54;7;7;
77481;PMS5003;66582;43.004;-75.010;2023-06-26T08:00:20;9;8;
77481;PMS5003;66582;43.004;-75.010;2023-06-26T08:02:45;11;9;
77481;PMS5003;66582;43.004;-75.010;2023-06-26T08:05:10;7;7;
77481;PMS5003;66582;43.004;-75.010;2023-06-26T08:07:36;9;9;
77481;PMS5003;66582;43.004;-75.010;2023-06-26T08:10:01;8;8;
77481;PMS5003;66582;43.004;-75.010;2023-06-26T08:12:26;10;8;
77481;PMS5003;66582;43.004;-75.010;2023-06-26T08:14:52;9;9;
77481;PMS5003;66582;43.004;-75.010;2023-06-26T08:17:16;9;9;
77481;PMS5003;66582;43.004;-75.010;2023-06-26T08:19:42;10;10;
77481;PMS5003;66582;43.004;-75.010;2023-06-26T08:22:07;10;10;
77481;PMS5003;66582;43.004;-75.010;2023-06-26T08:24:32;9;8;
77481;PMS5003;66582;43.004;-75.010;2023-06-26T08:26:57;10;10;
77481;PMS5003;66582;43.004;-75.010;2023-06-26T08:29:22;9;8;
77481;PMS5003;66582;43.004;-75.010;2023-06-26T08:31:47;8;8;
77481;PMS5003;66582;43.004;-75.010;2023-06-26T08:34:13;7;7;
77481;PMS5003;66582;43.004;-75.010;2023-06-26T08:36:38;8;8;
77481;PMS5003;66582;43.004;-75.010;2023-06-26T08:39:04;8;8;
77481;PMS5003;66582;43.004;-75.010;2023-06-26T08:41:29;8;8;
77481;PMS5003;66582;43.004;-75.010;2023-06-26T08:43:54;6;6;
77481;PMS5003;66582;43.004;-75.010;2023-06-26T08:46:19;8;8;
77481;PMS5003;66582;43.004;-75.010;2023-06-26T08:48:49;9;8;
77481;PMS5003;66582;43.004;-75.010;2023-06-26T08:51:11;11;11;
77481;PMS5003;66582;43.004;-75.010;2023-06-26T08:53:36;11;11;
77481;PMS5003;66582;43.004;-75.010;2023-06-26T08:56:00;7;7;
77481;PMS5003;66582;43.004;-75.010;2023-06-26T08:58:25;9;8;
77481;PMS5003;66582;43.004;-75.010;2023-06-26T09:00:50;8;8;
77481;PMS5003;66582;43.004;-75.010;2023-06-26T09:03:15;9;9;
77481;PMS5003;66582;43.004;-75.010;2023-06-26T09:05:40;8;8;
77481;PMS5003;66582;43.004;-75.010;2023-06-26T09:08:06;7;7;
77481;PMS5003;66582;43.004;-75.010;2023-06-26T09:10:31;8;8;
77481;PMS5003;66582;43.004;-75.010;2023-06-26T09:12:56;10;10;
77481;PMS5003;66582;43.004;-75.010;2023-06-26T09:15:22;8;8;
77481;PMS5003;66582;43.004;-75.010;2023-06-26T09:17:47;10;10;
77481;PMS5003;66582;43.004;-75.010;2023-06-26T09:20:12;8;8;
77481;PMS5003;66582;43.004;-75.010;2023-06-26T09:22:38;10;10;
77481;PMS5003;66582;43.004;-75.010;2023-06-26T09:25:02;9;8;
77481;PMS5003;66582;43.004;-75.010;2023-06-26T09:27:27;9;9;
77481;PMS5003;66582;43.004;-75.010;2023-06-26T09:29:53;8;8;
77481;PMS5003;66582;43.004;-75.010;2023-06-26T09:32:18;8;8;
77481;PMS5003;66582;43.004;-75.010;2023-06-26T09:34:43;8;8;
77481;PMS5003;66582;43.004;-75.010;2023-06-26T09:37:10;8;8;
77481;PMS5003;66582;43.004;-75.010;2023-06-26T09:39:34;11;11;
77481;PMS5003;66582;43.004;-75.010;2023-06-26T09:41:59;10;10;
77481;PMS5003;66582;43.004;-75.010;2023-06-26T09:44:24;11;11;
77481;PMS5003;66582;43.004;-75.010;2023-06-26T09:46:49;8;8;
77481;PMS5003;66582;43.004;-75.010;2023-06-26T09:49:15;11;11;
77481;PMS5003;66582;43.004;-75.010;2023-06-26T09:51:41;10;10;
77481;PMS5003;66582;43.004;-75.010;2023-06-26T09:54:06;10;10;
77481;PMS5003;66582;43.004;-75.010;2023-06-26T09:56:32;8;8;
77481;PMS5003;66582;43.004;-75.010;2023-06-26T09:58:57;14;13;
77481;PMS5003;66582;43.004;-75.010;2023-06-26T10:01:22;17;17;
77481;PMS5003;66582;43.004;-75.010;2023-06-26T10:03:48;11;11;
77481;PMS5003;66582;43.004;-75.010;2023-06-26T10:06:13;13;11;
77481;PMS5003;66582;43.004;-75.010;2023-06-26T10:08:38;11;11;
77481;PMS5003;66582;43.004;-75.010;2023-06-26T10:11:03;10;10;
77481;PMS5003;66582;43.004;-75.010;2023-06-26T10:13:30;10;10;
77481;PMS5003;66582;43.004;-75.010;2023-06-26T10:15:54;9;9;
77481;PMS5003;66582;43.004;-75.010;2023-06-26T10:18:19;10;9;
77481;PMS5003;66582;43.004;-75.010;2023-06-26T10:20:44;8;8;
77481;PMS5003;66582;43.004;-75.010;2023-06-26T10:23:09;9;9;
77481;PMS5003;66582;43.004;-75.010;2023-06-26T10:25:34;11;10;
77481;PMS5003;66582;43.004;-75.010;2023-06-26T10:28:00;9;9;
77481;PMS5003;66582;43.004;-75.010;2023-06-26T10:30:26;8;8;
77481;PMS5003;66582;43.004;-75.010;2023-06-26T10:32:50;8;8;
77481;PMS5003;66582;43.004;-75.010;2023-06-26T10:35:15;9;9;
77481;PMS5003;66582;43.004;-75.010;2023-06-26T10:37:41;9;7;
77481;PMS5003;66582;43.004;-75.010;2023-06-26T10:40:06;10;10;
77481;PMS5003;66582;43.004;-75.010;2023-06-26T10:42:34;9;9;
77481;PMS5003;66582;43.004;-75.010;2023-06-26T10:44:56;11;9;
77481;PMS5003;66582;43.004;-75.010;2023-06-26T10:47:29;9;9;
77481;PMS5003;66582;43.004;-75.010;2023-06-26T10:49:47;9;9;
77481;PMS5003;66582;43.004;-75.010;2023-06-26T10:52:12;8;7;
77481;PMS5003;66582;43.004;-75.010;2023-06-26T10:54:37;9;9;
77481;PMS5003;66582;43.004;-75.010;2023-06-26T10:57:02;11;11;
77481;PMS5003;66582;43.004;-75.010;2023-06-26T10:59:28;9;9;
77481;PMS5003;66582;43.004;-75.010;2023-06-26T11:01:54;9;9;
77481;PMS5003;66582;43.004;-75.010;2023-06-26T11:04:18;10;10;
77481;PMS5003;66582;43.004;-75.010;2023-06-26T11:06:45;9;9;
77481;PMS5003;66582;43.004;-75.010;2023-06-26T11:09:09;10;10;
77481;PMS5003;66582;43.004;-75.010;2023-06-26T11:13:59;11;11;
77481;PMS5003;66582;43.004;-75.010;2023-06-26T11:16:24;10;10;
77481;PMS5003;66582;43.004;-75.010;2023-06-26T11:18:49;11;11;
77481;PMS5003;66582;43.004;-75.010;2023-06-26T11:21:14;13;13;
77481;PMS5003;66582;43.004;-75.010;2023-06-26T11:23:40;13;12;
77481;PMS5003;66582;43.004;-75.010;2023-06-26T11:28:31;11;11;
77481;PMS5003;66582;43.004;-75.010;2023-06-26T11:30:56;10;10;
77481;PMS5003;66582;43.004;-75.010;2023-06-26T11:33:26;10;10;
77481;PMS5003;66582;43.004;-75.010;2023-06-26T11:35:46;12;11;
77481;PMS5003;66582;43.004;-75.010;2023-06-26T11:38:11;12;12;
77481;PMS5003;66582;43.004;-75.010;2023-06-26T11:40:37;12;11;
77481;PMS5003;66582;43.004;-75.010;2023-06-26T11:43:02;11;11;
77481;PMS5003;66582;43.004;-75.010;2023-06-26T11:45:27;9;9;
77481;PMS5003;66582;43.004;-75.010;2023-06-26T11:47:52;14;13;
77481;PMS5003;66582;43.004;-75.010;2023-06-26T11:50:17;12;12;
77481;PMS5003;66582;43.004;-75.010;2023-06-26T11:52:43;12;12;
77481;PMS5003;66582;43.004;-75.010;2023-06-26T11:55:09;10;9;
77481;PMS5003;66582;43.004;-75.010;2023-06-26T11:57:34;12;12;
77481;PMS5003;66582;43.004;-75.010;2023-06-26T12:00:09;11;11;
77481;PMS5003;66582;43.004;-75.010;2023-06-26T12:02:24;12;12;
77481;PMS5003;66582;43.004;-75.010;2023-06-26T12:04:49;12;12;
77481;PMS5003;66582;43.004;-75.010;2023-06-26T12:07:14;14;14;
77481;PMS5003;66582;43.004;-75.010;2023-06-26T12:09:40;12;12;
77481;PMS5003;66582;43.004;-75.010;2023-06-26T12:12:05;13;12;
77481;PMS5003;66582;43.004;-75.010;2023-06-26T12:14:31;11;11;
77481;PMS5003;66582;43.004;-75.010;2023-06-26T12:16:56;12;12;
77481;PMS5003;66582;43.004;-75.010;2023-06-26T12:19:24;12;12;
77481;PMS5003;66582;43.004;-75.010;2023-06-26T12:21:47;13;13;
77481;PMS5003;66582;43.004;-75.010;2023-06-26T12:24:13;14;14;
77481;PMS5003;66582;43.004;-75.010;2023-06-26T12:26:37;11;10;
77481;PMS5003;66582;43.004;-75.010;2023-06-26T12:29:04;12;12;
77481;PMS5003;66582;43.004;-75.010;2023-06-26T12:31:28;9;8;
77481;PMS5003;66582;43.004;-75.010;2023-06-26T12:33:53;11;11;
77481;PMS5003;66582;43.004;-75.010;2023-06-26T12:36:18;12;12;
77481;PMS5003;66582;43.004;-75.010;2023-06-26T12:38:45;12;12;
77481;PMS5003;66582;43.004;-75.010;2023-06-26T12:41:12;14;14;
77481;PMS5003;66582;43.004;-75.010;2023-06-26T12:43:34;15;14;
77481;PMS5003;66582;43.004;-75.010;2023-06-26T12:45:59;13;12;
77481;PMS5003;66582;43.004;-75.010;2023-06-26T12:50:49;13;13;
77481;PMS5003;66582;43.004;-75.010;2023-06-26T12:53:15;13;13;
77481;PMS5003;66582;43.004;-75.010;2023-06-26T12:55:40;14;14;
77481;PMS5003;66582;43.004;-75.010;2023-06-26T12:58:05;15;15;
77481;PMS5003;66582;43.004;-75.010;2023-06-26T13:00:30;12;11;
77481;PMS5003;66582;43.004;-75.010;2023-06-26T13:02:55;15;15;
77481;PMS5003;66582;43.004;-75.010;2023-06-26T13:05:21;15;15;
77481;PMS5003;66582;43.004;-75.010;2023-06-26T13:07:46;16;16;
77481;PMS5003;66582;43.004;-75.010;2023-06-26T13:10:11;14;14;
77481;PMS5003;66582;43.004;-75.010;2023-06-26T13:12:37;11;11;
77481;PMS5003;66582;43.004;-75.010;2023-06-26T13:15:02;16;15;
77481;PMS5003;66582;43.004;-75.010;2023-06-26T13:17:26;14;13;
77481;PMS5003;66582;43.004;-75.010;2023-06-26T13:19:52;14;14;
77481;PMS5003;66582;43.004;-75.010;2023-06-26T13:22:17;13;13;
77481;PMS5003;66582;43.004;-75.010;2023-06-26T13:24:42;15;15;
77481;PMS5003;66582;43.004;-75.010;2023-06-26T13:27:07;14;14;
77481;PMS5003;66582;43.004;-75.010;2023-06-26T13:29:33;13;13;
77481;PMS5003;66582;43.004;-75.010;2023-06-26T13:31:58;15;15;
77481;PMS5003;66582;43.004;-75.010;2023-06-26T13:34:24;14;13;
77481;PMS5003;66582;43.004;-75.010;2023-06-26T13:36:50;15;15;
77481;PMS5003;66582;43.004;-75.010;2023-06-26T13:39:15;14;14;
77481;PMS5003;66582;43.004;-75.010;2023-06-26T13:41:40;14;14;
77481;PMS5003;66582;43.004;-75.010;2023-06-26T13:44:06;13;13;
77481;PMS5003;66582;43.004;-75.010;2023-06-26T13:46:31;14;14;
77481;PMS5003;66582;43.004;-75.010;2023-06-26T13:48:56;15;15;
77481;PMS5003;66582;43.004;-75.010;2023-06-26T13:51:22;16;16;
77481;PMS5003;66582;43.004;-75.010;2023-06-26T13:53:46;16;16;
77481;PMS5003;66582;43.004;-75.010;2023-06-26T13:56:12;16;16;
77481;PMS5003;66582;43.004;-75.010;2023-06-26T13:58:38;15;15;
77481;PMS5003;66582;43.004;-75.010;2023-06-26T14:01:03;14;14;
77481;PMS5003;66582;43.004;-75.010;2023-06-26T14:03:29;14;13;
77481;PMS5003;66582;43.004;-75.010;2023-06-26T14:05:54;16;16;
77481;PMS5003;66582;43.004;-75.010;2023-06-26T14:08:19;13;13;
77481;PMS5003;66582;43.004;-75.010;2023-06-26T14:10:44;15;15;
77481;PMS5003;66582;43.004;-75.010;2023-06-26T14:13:10;15;15;
77481;PMS5003;66582;43.004;-75.010;2023-06-26T14:15:35;15;15;
77481;PMS5003;66582;43.004;-75.010;2023-06-26T14:18:00;14;14;
77481;PMS5003;66582;43.004;-75.010;2023-06-26T14:20:26;15;14;
77481;PMS5003;66582;43.004;-75.010;2023-06-26T14:22:51;15;14;
77481;PMS5003;66582;43.004;-75.010;2023-06-26T14:25:16;14;14;
77481;PMS5003;66582;43.004;-75.010;2023-06-26T14:27:42;14;14;
77481;PMS5003;66582;43.004;-75.010;2023-06-26T14:30:07;15;15;
77481;PMS5003;66582;43.004;-75.010;2023-06-26T14:32:32;14;14;
77481;PMS5003;66582;43.004;-75.010;2023-06-26T14:34:57;14;14;
77481;PMS5003;66582;43.004;-75.010;2023-06-26T14:37:22;15;15;
77481;PMS5003;66582;43.004;-75.010;2023-06-26T14:39:48;15;14;
77481;PMS5003;66582;43.004;-75.010;2023-06-26T14:42:13;15;15;
77481;PMS5003;66582;43.004;-75.010;2023-06-26T14:44:38;16;16;
77481;PMS5003;66582;43.004;-75.010;2023-06-26T14:47:03;14;14;
77481;PMS5003;66582;43.004;-75.010;2023-06-26T14:49:29;13;13;
77481;PMS5003;66582;43.004;-75.010;2023-06-26T14:51:54;16;16;
77481;PMS5003;66582;43.004;-75.010;2023-06-26T14:54:19;13;13;
77481;PMS5003;66582;43.004;-75.010;2023-06-26T14:56:44;14;13;
77481;PMS5003;66582;43.004;-75.010;2023-06-26T14:59:09;15;14;
77481;PMS5003;66582;43.004;-75.010;2023-06-26T15:01:34;16;16;
77481;PMS5003;66582;43.004;-75.010;2023-06-26T15:04:00;16;16;
77481;PMS5003;66582;43.004;-75.010;2023-06-26T15:06:26;15;15;
77481;PMS5003;66582;43.004;-75.010;2023-06-26T15:08:51;17;15;
77481;PMS5003;66582;43.004;-75.010;2023-06-26T15:11:17;14;14;
77481;PMS5003;66582;43.004;-75.010;2023-06-26T15:13:42;19;19;
77481;PMS5003;66582;43.004;-75.010;2023-06-26T15:16:07;16;16;
77481;PMS5003;66582;43.004;-75.010;2023-06-26T15:18:32;16;16;
77481;PMS5003;66582;43.004;-75.010;2023-06-26T15:20:57;18;17;
77481;PMS5003;66582;43.004;-75.010;2023-06-26T15:23:22;17;17;
77481;PMS5003;66582;43.004;-75.010;2023-06-26T15:25:47;14;14;
77481;PMS5003;66582;43.004;-75.010;2023-06-26T15:28:13;18;16;
77481;PMS5003;66582;43.004;-75.010;2023-06-26T15:30:38;15;14;
77481;PMS5003;66582;43.004;-75.010;2023-06-26T15:33:03;19;17;
77481;PMS5003;66582;43.004;-75.010;2023-06-26T15:35:29;14;14;
77481;PMS5003;66582;43.004;-75.010;2023-06-26T15:37:54;16;15;
77481;PMS5003;66582;43.004;-75.010;2023-06-26T15:40:19;15;15;
77481;PMS5003;66582;43.004;-75.010;2023-06-26T15:42:45;17;16;
77481;PMS5003;66582;43.004;-75.010;2023-06-26T15:45:10;13;13;
77481;PMS5003;66582;43.004;-75.010;2023-06-26T15:47:35;12;11;
77481;PMS5003;66582;43.004;-75.010;2023-06-26T15:50:00;14;14;
77481;PMS5003;66582;43.004;-75.010;2023-06-26T15:52:26;13;13;
77481;PMS5003;66582;43.004;-75.010;2023-06-26T15:54:52;12;11;
77481;PMS5003;66582;43.004;-75.010;2023-06-26T15:57:17;14;14;
77481;PMS5003;66582;43.004;-75.010;2023-06-26T15:59:42;13;13;